createdAt,value
2023-03-16T00:01:12.565Z,101024.94
2023-03-16T00:04:13.938Z,101020.63
2023-03-16T00:07:15.553Z,101015.47
2023-03-16T00:10:16.999Z,101025.00
2023-03-16T00:13:23.643Z,101016.34
2023-03-16T00:16:25.151Z,101011.19
2023-03-16T00:19:26.635Z,101022.47
2023-03-16T00:22:29.720Z,101019.88
2023-03-16T00:25:33.451Z,101026.81
2023-03-16T00:28:36.073Z,101025.97
2023-03-16T00:31:39.802Z,101013.78
2023-03-16T00:34:41.260Z,101019.03
2023-03-16T00:37:43.529Z,101024.28
2023-03-16T00:40:45.810Z,101021.66
2023-03-16T00:43:48.769Z,101022.56
2023-03-16T00:46:50.187Z,101028.56
2023-03-16T00:49:51.614Z,101023.31
2023-03-16T00:52:53.619Z,101013.78
2023-03-16T00:55:55.167Z,101013.78
2023-03-16T00:58:57.803Z,101008.47
2023-03-16T01:01:59.324Z,100995.34
2023-03-16T01:05:01.884Z,101004.03
2023-03-16T01:08:04.215Z,101004.03
2023-03-16T01:11:08.256Z,101002.38
2023-03-16T01:14:10.105Z,101005.00
2023-03-16T01:17:13.797Z,100999.72
2023-03-16T01:20:19.237Z,100996.31
2023-03-16T01:23:21.523Z,100990.22
2023-03-16T01:26:25.123Z,100984.19
2023-03-16T01:29:26.645Z,100983.28
2023-03-16T01:32:30.496Z,100985.06
2023-03-16T01:35:32.033Z,100968.53
2023-03-16T01:38:33.851Z,100981.63
2023-03-16T01:41:35.539Z,100985.91
2023-03-16T01:45:01.589Z,100983.28
2023-03-16T01:48:08.217Z,100985.03
2023-03-16T01:51:15.786Z,100985.03
2023-03-16T01:54:43.746Z,100983.31
2023-03-16T01:57:46.907Z,100974.63
2023-03-16T02:00:48.854Z,100971.19
2023-03-16T02:04:01.607Z,100968.53
2023-03-16T02:07:06.829Z,100965.94
2023-03-16T02:10:10.527Z,100958.13
2023-03-16T02:13:12.537Z,100956.41
2023-03-16T02:16:19.290Z,100957.28
2023-03-16T02:19:35.776Z,100939.91
2023-03-16T02:22:46.636Z,100937.25
2023-03-16T02:26:00.173Z,100939.91
2023-03-16T02:29:41.715Z,100942.47
2023-03-16T02:32:45.729Z,100938.13
2023-03-16T02:35:47.293Z,100937.22
2023-03-16T02:38:48.715Z,100944.16
2023-03-16T02:41:52.429Z,100933.72
2023-03-16T02:44:59.103Z,100940.56
2023-03-16T02:48:09.475Z,100933.53
2023-03-16T02:51:11.331Z,100922.28
2023-03-16T02:54:13.142Z,100927.47
2023-03-16T02:57:15.461Z,100929.19
2023-03-16T03:00:18.983Z,100920.53
2023-03-16T03:03:23.979Z,100923.97
2023-03-16T03:06:25.465Z,100922.28
2023-03-16T03:09:27.156Z,100914.41
2023-03-16T03:12:29.055Z,100912.72
2023-03-16T03:15:30.641Z,100910.06
2023-03-16T03:18:40.150Z,100910.88
2023-03-16T03:21:41.924Z,100890.97
2023-03-16T03:24:43.691Z,100897.06
2023-03-16T03:27:46.586Z,100901.41
2023-03-16T03:30:51.475Z,100900.53
2023-03-16T03:33:53.572Z,100897.88
2023-03-16T03:36:56.354Z,100898.81
2023-03-16T03:39:57.968Z,100912.66
2023-03-16T03:43:01.350Z,100909.06
2023-03-16T03:46:04.479Z,100916.88
2023-03-16T03:49:08.410Z,100914.31
2023-03-16T03:52:10.911Z,100906.47
2023-03-16T03:55:12.766Z,100910.63
2023-03-16T03:58:14.255Z,100905.47
2023-03-16T04:01:15.917Z,100890.75
2023-03-16T04:04:17.396Z,100885.56
2023-03-16T04:07:18.828Z,100889.00
2023-03-16T04:10:21.255Z,100883.84
2023-03-16T04:13:22.798Z,100887.28
2023-03-16T04:16:26.802Z,100894.28
2023-03-16T04:19:29.558Z,100887.41
2023-03-16T04:22:31.792Z,100896.00
2023-03-16T04:25:33.262Z,100891.63
2023-03-16T04:28:34.794Z,100892.50
2023-03-16T04:31:37.017Z,100891.63
2023-03-16T04:34:41.677Z,100898.59
2023-03-16T04:37:44.069Z,100893.31
2023-03-16T04:40:45.625Z,100889.84
2023-03-16T04:43:52.080Z,100889.88
2023-03-16T04:46:56.356Z,100892.50
2023-03-16T04:50:02.599Z,100894.25
2023-03-16T04:53:05.022Z,100885.63
2023-03-16T04:56:08.098Z,100883.03
2023-03-16T04:59:10.773Z,100886.50
2023-03-16T05:02:21.192Z,100879.63
2023-03-16T05:05:23.690Z,100883.09
2023-03-16T05:08:25.285Z,100880.47
2023-03-16T05:11:28.733Z,100873.56
2023-03-16T05:14:35.951Z,100878.72
2023-03-16T05:17:55.935Z,100876.97
2023-03-16T05:20:57.381Z,100873.41
2023-03-16T05:24:05.712Z,100880.41
2023-03-16T05:27:07.238Z,100876.09
2023-03-16T05:30:11.042Z,100869.25
2023-03-16T05:33:13.154Z,100866.63
2023-03-16T05:36:14.996Z,100862.28
2023-03-16T05:39:19.740Z,100857.84
2023-03-16T05:42:23.394Z,100857.84
2023-03-16T05:45:31.403Z,100858.72
2023-03-16T05:48:41.290Z,100860.53
2023-03-16T05:51:44.616Z,100857.09
2023-03-16T05:54:47.198Z,100861.41
2023-03-16T05:57:49.528Z,100850.19
2023-03-16T06:00:51.034Z,100850.16
2023-03-16T06:04:00.471Z,100848.41
2023-03-16T06:07:04.422Z,100847.59
2023-03-16T06:10:07.222Z,100843.34
2023-03-16T06:13:09.041Z,100841.59
2023-03-16T06:16:13.735Z,100837.22
2023-03-16T06:19:15.539Z,100836.38
2023-03-16T06:22:18.446Z,100839.00
2023-03-16T06:25:20.057Z,100839.84
2023-03-16T06:28:23.057Z,100848.53
2023-03-16T06:31:24.818Z,100837.31
2023-03-16T06:34:26.430Z,100843.44
2023-03-16T06:37:30.978Z,100847.78
2023-03-16T06:40:37.099Z,100845.19
2023-03-16T06:43:38.702Z,100851.28
2023-03-16T06:46:40.260Z,100854.78
2023-03-16T06:49:43.046Z,100844.38
2023-03-16T06:52:51.588Z,100842.69
2023-03-16T06:55:53.124Z,100851.38
2023-03-16T06:58:54.792Z,100855.72
2023-03-16T07:01:56.219Z,100854.91
2023-03-16T07:04:57.672Z,100861.91
2023-03-16T07:07:59.148Z,100854.09
2023-03-16T07:11:01.331Z,100860.25
2023-03-16T07:14:02.767Z,100859.41
2023-03-16T07:17:06.574Z,100857.66
2023-03-16T07:20:10.834Z,100860.31
2023-03-16T07:23:13.687Z,100853.34
2023-03-16T07:26:16.472Z,100859.44
2023-03-16T07:29:25.766Z,100862.03
2023-03-16T07:32:27.424Z,100864.66
2023-03-16T07:35:29.458Z,100866.44
2023-03-16T07:38:32.807Z,100865.63
2023-03-16T07:41:34.525Z,100863.03
2023-03-16T07:45:04.432Z,100863.91
2023-03-16T07:48:06.284Z,100870.03
2023-03-16T07:51:23.847Z,100880.47
2023-03-16T07:54:26.767Z,100875.25
2023-03-16T07:57:28.230Z,100875.28
2023-03-16T08:00:29.976Z,100865.72
2023-03-16T08:03:32.108Z,100870.94
2023-03-16T08:06:33.771Z,100864.84
2023-03-16T08:09:36.610Z,100853.53
2023-03-16T08:12:41.638Z,100847.41
2023-03-16T08:15:47.282Z,100843.91
2023-03-16T08:18:57.613Z,100842.97
2023-03-16T08:22:02.065Z,100842.03
2023-03-16T08:25:11.321Z,100845.50
2023-03-16T08:28:16.994Z,100843.63
2023-03-16T08:31:20.087Z,100838.31
2023-03-16T08:34:30.146Z,100840.88
2023-03-16T08:37:33.906Z,100843.38
2023-03-16T08:40:36.044Z,100851.19
2023-03-16T08:43:37.933Z,100843.41
2023-03-16T08:46:40.701Z,100846.81
2023-03-16T08:49:42.407Z,100839.78
2023-03-16T08:52:50.809Z,100831.72
2023-03-16T08:55:52.572Z,100819.34
2023-03-16T08:58:54.254Z,100818.28
2023-03-16T09:01:56.091Z,100817.28
2023-03-16T09:04:57.547Z,100813.94
2023-03-16T09:07:58.997Z,100815.66
2023-03-16T09:11:10.396Z,100815.31
2023-03-16T09:14:11.828Z,100818.53
2023-03-16T09:17:13.252Z,100818.41
2023-03-16T09:20:26.863Z,100824.38
2023-03-16T09:23:32.444Z,100817.09
2023-03-16T09:26:33.843Z,100811.44
2023-03-16T09:29:36.450Z,100807.16
2023-03-16T09:32:38.102Z,100810.06
2023-03-16T09:35:39.659Z,100821.28
2023-03-16T09:38:42.285Z,100819.59
2023-03-16T09:41:53.912Z,100815.88
2023-03-16T09:45:18.370Z,100823.03
2023-03-16T09:48:21.488Z,100817.00
2023-03-16T09:51:41.742Z,100807.91
2023-03-16T09:54:52.510Z,100808.66
2023-03-16T09:57:54.160Z,100803.03
2023-03-16T10:01:09.982Z,100787.94
2023-03-16T10:04:50.457Z,100781.84
2023-03-16T10:08:08.982Z,100773.91
2023-03-16T10:11:32.083Z,100770.84
2023-03-16T10:15:04.549Z,100780.06
2023-03-16T10:18:18.078Z,100773.31
2023-03-16T10:21:21.139Z,100768.38
2023-03-16T10:24:27.058Z,100765.72
2023-03-16T10:27:34.868Z,100756.41
2023-03-16T10:30:37.353Z,100752.03
2023-03-16T10:33:39.513Z,100761.38
2023-03-16T10:36:45.087Z,100770.09
2023-03-16T10:39:48.876Z,100762.56
2023-03-16T10:42:50.605Z,100763.72
2023-03-16T10:45:52.196Z,100762.09
2023-03-16T10:49:01.751Z,100759.09
2023-03-16T10:52:13.876Z,100766.75
2023-03-16T10:55:26.616Z,100760.47
2023-03-16T10:58:35.579Z,100757.00
2023-03-16T11:01:37.483Z,100760.72
2023-03-16T11:04:38.908Z,100748.34
2023-03-16T11:07:48.199Z,100742.63
2023-03-16T11:10:59.247Z,100736.88
2023-03-16T11:14:04.471Z,100724.00
2023-03-16T11:17:18.978Z,100727.78
2023-03-16T11:20:32.540Z,100714.50
2023-03-16T11:23:38.897Z,100716.25
2023-03-16T11:26:42.861Z,100718.25
2023-03-16T11:29:58.570Z,100723.97
2023-03-16T11:33:00.573Z,100722.19
2023-03-16T11:36:27.784Z,100706.34
2023-03-16T11:39:57.459Z,100706.28
2023-03-16T11:43:05.895Z,100700.47
2023-03-16T11:46:18.657Z,100687.78
2023-03-16T11:49:45.751Z,100695.41
2023-03-16T11:53:13.427Z,100680.75
2023-03-16T11:56:28.742Z,100684.91
2023-03-16T11:59:35.964Z,100684.19
2023-03-16T12:02:49.689Z,100684.19
2023-03-16T12:06:47.029Z,100671.41
2023-03-16T12:10:02.075Z,100669.44
2023-03-16T12:13:26.594Z,100662.44
2023-03-16T12:16:48.382Z,100660.44
2023-03-16T12:19:56.314Z,100654.97
2023-03-16T12:23:12.544Z,100645.13
2023-03-16T12:26:14.944Z,100649.41
2023-03-16T12:29:31.032Z,100644.03
2023-03-16T12:33:02.042Z,100651.84
2023-03-16T12:36:15.054Z,100644.19
2023-03-16T12:39:19.506Z,100639.03
2023-03-16T12:43:03.043Z,100637.66
2023-03-16T12:46:11.668Z,100620.75
2023-03-16T12:49:14.181Z,100626.84
2023-03-16T12:52:15.754Z,100620.25
2023-03-16T12:55:20.760Z,100619.97
2023-03-16T12:58:23.960Z,100603.72
2023-03-16T13:01:28.813Z,100609.25
2023-03-16T13:04:34.851Z,100592.69
2023-03-16T13:07:39.148Z,100593.34
2023-03-16T13:10:40.655Z,100588.25
2023-03-16T13:14:06.293Z,100584.53
2023-03-16T13:17:17.211Z,100587.13
2023-03-16T13:20:47.732Z,100575.25
2023-03-16T13:24:01.311Z,100576.94
2023-03-16T13:27:06.442Z,100570.88
2023-03-16T13:30:22.366Z,100568.41
2023-03-16T13:33:27.084Z,100573.25
2023-03-16T13:36:30.570Z,100565.84
2023-03-16T13:39:32.466Z,100562.13
2023-03-16T13:42:34.027Z,100563.56
2023-03-16T13:45:38.357Z,100556.34
2023-03-16T13:48:41.617Z,100553.97
2023-03-16T13:51:43.667Z,100545.75
2023-03-16T13:54:45.172Z,100537.50
2023-03-16T13:57:49.033Z,100527.06
2023-03-16T14:00:55.614Z,100509.19
2023-03-16T14:04:08.605Z,100517.53
2023-03-16T14:07:17.346Z,100515.47
2023-03-16T14:10:20.589Z,100511.19
2023-03-16T14:13:23.993Z,100505.31
2023-03-16T14:16:28.354Z,100502.59
2023-03-16T14:19:35.989Z,100508.44
2023-03-16T14:22:38.214Z,100491.19
2023-03-16T14:25:39.702Z,100488.72
2023-03-16T14:28:42.464Z,100497.44
2023-03-16T14:31:44.572Z,100497.00
2023-03-16T14:34:49.947Z,100499.00
2023-03-16T14:37:51.940Z,100494.31
2023-03-16T14:40:56.540Z,100493.69
2023-03-16T14:44:00.706Z,100491.44
2023-03-16T14:47:04.923Z,100486.00
2023-03-16T14:50:13.862Z,100477.72
2023-03-16T14:53:15.484Z,100482.09
2023-03-16T14:56:17.440Z,100473.78
2023-03-16T14:59:19.642Z,100468.34
2023-03-16T15:02:27.019Z,100468.78
2023-03-16T15:05:40.267Z,100461.53
2023-03-16T15:08:45.979Z,100471.78
2023-03-16T15:11:47.379Z,100474.50
2023-03-16T15:15:07.474Z,100462.19
2023-03-16T15:18:09.096Z,100470.72
2023-03-16T15:21:12.843Z,100461.81
2023-03-16T15:24:14.298Z,100469.69
2023-03-16T15:27:20.966Z,100464.34
2023-03-16T15:30:28.713Z,100458.44
2023-03-16T15:33:31.051Z,100456.59
2023-03-16T15:36:32.541Z,100450.13
2023-03-16T15:39:34.142Z,100459.22
2023-03-16T15:42:35.519Z,100436.38
2023-03-16T15:45:37.302Z,100448.41
2023-03-16T15:48:39.367Z,100438.66
2023-03-16T15:51:41.174Z,100436.16
2023-03-16T15:54:42.566Z,100425.13
2023-03-16T15:57:45.411Z,100431.00
2023-03-16T16:00:48.740Z,100427.00
2023-03-16T16:03:51.563Z,100427.78
2023-03-16T16:06:55.168Z,100413.13
2023-03-16T16:09:56.741Z,100418.09
2023-03-16T16:12:59.015Z,100411.13
2023-03-16T16:16:00.521Z,100410.13
2023-03-16T16:19:01.995Z,100409.03
2023-03-16T16:22:04.233Z,100410.97
2023-03-16T16:25:05.785Z,100398.72
2023-03-16T16:28:16.481Z,100401.25
2023-03-16T16:31:19.610Z,100395.53
2023-03-16T16:34:24.570Z,100393.25
2023-03-16T16:37:26.322Z,100401.63
2023-03-16T16:40:37.267Z,100405.22
2023-03-16T16:43:46.550Z,100407.19
2023-03-16T16:46:50.260Z,100407.19
2023-03-16T16:49:52.578Z,100407.44
2023-03-16T16:52:55.178Z,100407.31
2023-03-16T16:55:57.374Z,100395.41
2023-03-16T16:59:07.074Z,100401.34
2023-03-16T17:02:42.026Z,100394.63
2023-03-16T17:05:43.537Z,100387.94
2023-03-16T17:08:49.953Z,100394.25
2023-03-16T17:11:52.232Z,100398.63
2023-03-16T17:14:53.635Z,100392.63
2023-03-16T17:18:00.662Z,100395.69
2023-03-16T17:21:02.383Z,100390.75
2023-03-16T17:24:04.596Z,100397.91
2023-03-16T17:27:05.984Z,100391.84
2023-03-16T17:30:27.633Z,100397.59
2023-03-16T17:33:29.058Z,100396.00
2023-03-16T17:36:30.548Z,100389.94
2023-03-16T17:39:34.316Z,100383.13
2023-03-16T17:42:35.981Z,100395.59
2023-03-16T17:45:37.476Z,100382.94
2023-03-16T17:48:38.911Z,100379.41
2023-03-16T17:51:40.861Z,100370.91
2023-03-16T17:54:42.738Z,100372.09
2023-03-16T17:57:44.200Z,100372.41
2023-03-16T18:00:47.104Z,100366.38
2023-03-16T18:03:48.562Z,100369.13
2023-03-16T18:06:51.197Z,100357.59
2023-03-16T18:09:53.004Z,100357.03
2023-03-16T18:13:01.747Z,100351.19
2023-03-16T18:16:05.701Z,100362.63
2023-03-16T18:19:21.356Z,100351.41
2023-03-16T18:22:24.608Z,100358.44
2023-03-16T18:25:40.798Z,100358.66
2023-03-16T18:28:42.267Z,100359.63
2023-03-16T18:31:45.753Z,100366.84
2023-03-16T18:34:47.466Z,100364.28
2023-03-16T18:37:49.149Z,100364.53
2023-03-16T18:40:50.704Z,100355.03
2023-03-16T18:43:55.004Z,100349.25
2023-03-16T18:47:02.886Z,100343.88
2023-03-16T18:50:04.807Z,100342.31
2023-03-16T18:53:08.127Z,100341.78
2023-03-16T18:56:28.917Z,100341.84
2023-03-16T18:59:31.821Z,100345.19
2023-03-16T19:02:38.919Z,100348.84
2023-03-16T19:05:40.738Z,100339.44
2023-03-16T19:08:42.118Z,100345.06
2023-03-16T19:11:44.882Z,100334.44
2023-03-16T19:14:46.927Z,100337.31
2023-03-16T19:17:48.966Z,100338.94
2023-03-16T19:20:51.001Z,100341.03
2023-03-16T19:24:02.934Z,100346.50
2023-03-16T19:27:16.440Z,100345.78
2023-03-16T19:30:30.256Z,100342.28
2023-03-16T19:33:31.831Z,100347.59
2023-03-16T19:36:33.832Z,100346.75
2023-03-16T19:39:35.365Z,100352.03
2023-03-16T19:42:37.086Z,100355.41
2023-03-16T19:45:39.257Z,100350.47
2023-03-16T19:48:42.306Z,100339.28
2023-03-16T19:51:43.766Z,100340.34
2023-03-16T19:54:45.270Z,100331.59
2023-03-16T19:57:49.141Z,100327.34
2023-03-16T20:00:50.996Z,100321.16
2023-03-16T20:03:53.260Z,100316.88
2023-03-16T20:06:54.934Z,100328.31
2023-03-16T20:09:57.257Z,100319.72
2023-03-16T20:13:01.461Z,100324.03
2023-03-16T20:16:03.531Z,100317.16
2023-03-16T20:19:13.408Z,100326.09
2023-03-16T20:22:20.567Z,100322.63
2023-03-16T20:25:24.637Z,100319.16
2023-03-16T20:28:33.600Z,100305.94
2023-03-16T20:31:36.556Z,100312.00
2023-03-16T20:34:38.037Z,100300.38
2023-03-16T20:37:39.439Z,100299.09
2023-03-16T20:40:46.409Z,100307.94
2023-03-16T20:43:48.332Z,100311.41
2023-03-16T20:46:49.721Z,100319.56
2023-03-16T20:49:52.381Z,100309.09
2023-03-16T20:52:54.669Z,100308.84
2023-03-16T20:55:56.606Z,100310.75
2023-03-16T20:58:58.949Z,100306.50
2023-03-16T21:02:01.563Z,100310.41
2023-03-16T21:05:06.640Z,100310.53
2023-03-16T21:08:08.498Z,100314.75
2023-03-16T21:11:19.671Z,100310.69
2023-03-16T21:14:23.760Z,100307.34
2023-03-16T21:17:30.716Z,100308.97
2023-03-16T21:20:33.764Z,100310.00
2023-03-16T21:23:35.473Z,100319.78
2023-03-16T21:26:37.403Z,100314.41
2023-03-16T21:29:38.835Z,100312.03
2023-03-16T21:32:40.235Z,100309.13
2023-03-16T21:35:41.819Z,100308.53
2023-03-16T21:38:44.601Z,100309.41
2023-03-16T21:41:47.423Z,100307.94
2023-03-16T21:44:48.807Z,100300.25
2023-03-16T21:47:50.262Z,100300.97
2023-03-16T21:50:53.649Z,100304.16
2023-03-16T21:53:55.118Z,100305.31
2023-03-16T21:56:56.975Z,100308.31
2023-03-16T21:59:58.379Z,100301.28
2023-03-16T22:03:00.780Z,100297.09
2023-03-16T22:06:02.328Z,100293.47
2023-03-16T22:09:04.143Z,100292.59
2023-03-16T22:12:09.272Z,100306.56
2023-03-16T22:15:10.831Z,100290.81
2023-03-16T22:18:28.069Z,100285.63
2023-03-16T22:21:40.870Z,100278.84
2023-03-16T22:24:42.363Z,100277.84
2023-03-16T22:27:43.944Z,100278.72
2023-03-16T22:30:45.816Z,100278.78
2023-03-16T22:33:48.583Z,100256.16
2023-03-16T22:36:50.181Z,100260.50
2023-03-16T22:39:52.818Z,100263.13
2023-03-16T22:42:56.273Z,100259.56
2023-03-16T22:45:58.001Z,100266.50
2023-03-16T22:48:59.445Z,100259.56
2023-03-16T22:52:01.849Z,100259.78
2023-03-16T22:55:05.572Z,100261.69
2023-03-16T22:58:31.831Z,100252.97
2023-03-16T23:01:37.452Z,100246.06
2023-03-16T23:04:38.947Z,100247.81
2023-03-16T23:07:40.446Z,100247.81
2023-03-16T23:10:42.164Z,100237.38
2023-03-16T23:13:43.950Z,100235.84
2023-03-16T23:16:46.684Z,100232.22
2023-03-16T23:19:48.562Z,100240.81
2023-03-16T23:22:50.113Z,100231.31
2023-03-16T23:25:51.704Z,100225.13
2023-03-16T23:28:55.536Z,100229.00
2023-03-16T23:31:57.638Z,100233.38
2023-03-16T23:34:59.130Z,100224.69
2023-03-16T23:38:00.562Z,100227.19
2023-03-16T23:41:02.009Z,100204.72
2023-03-16T23:44:06.549Z,100204.56
2023-03-16T23:47:10.759Z,100198.66
2023-03-16T23:50:14.209Z,100197.88
2023-03-16T23:53:18.221Z,100192.25
2023-03-16T23:56:20.090Z,100195.94
2023-03-16T23:59:23.332Z,100199.56
